Time;durP1;ratioP1;P1;durP2;ratioP2;P2;SDS_P1;SDS_P2;PMS_P1;PMS_P2;Temp;Humidity;BMP_temperature;BMP_pressure;BME280_temperature;BME280_humidity;BME280_pressure;Samples;Min_cycle;Max_cycle;Signal;HPM_P1;HPM_P2
2023/01/21 00:01:28;;;;;;;51.03;41.30;;;;;;;-2.31;100.00;102401.69;5092834;28;20060;-88
2023/01/21 00:03:54;;;;;;;51.37;41.17;;;;;;;-2.37;100.00;102405.56;5097817;28;20371;-88
2023/01/21 00:06:19;;;;;;;52.97;41.53;;;;;;;-2.34;100.00;102409.84;5093667;28;20498;-88
2023/01/21 00:08:45;;;;;;;54.43;41.27;;;;;;;-2.37;100.00;102408.22;5094159;28;20038;-89
2023/01/21 00:11:13;;;;;;;52.67;41.90;;;;;;;-2.39;100.00;102421.59;5091076;28;20036;-89
2023/01/21 00:13:39;;;;;;;54.03;42.70;;;;;;;-2.41;100.00;102426.16;5088661;28;20034;-81
2023/01/21 00:16:05;;;;;;;55.33;42.13;;;;;;;-2.41;100.00;102427.94;5086549;28;20281;-82
2023/01/21 00:18:31;;;;;;;51.17;40.80;;;;;;;-2.40;100.00;102434.97;5084909;28;20047;-82
2023/01/21 00:20:57;;;;;;;52.27;41.93;;;;;;;-2.34;100.00;102425.78;5085063;28;20035;-81
2023/01/21 00:23:22;;;;;;;37.67;18.03;;;;;;;-2.38;100.00;102430.41;5083706;28;20282;-81
2023/01/21 00:25:48;;;;;;;53.60;41.43;;;;;;;-2.41;100.00;102431.47;5083872;28;20035;-81
2023/01/21 00:28:13;;;;;;;53.00;40.90;;;;;;;-2.38;100.00;102441.03;5086066;28;20063;-81
2023/01/21 00:30:40;;;;;;;53.03;43.03;;;;;;;-2.43;100.00;102433.34;5085938;28;20081;-81
2023/01/21 00:33:05;;;;;;;50.67;41.67;;;;;;;-2.41;100.00;102435.91;5085340;28;20499;-81
2023/01/21 00:35:31;;;;;;;53.63;42.47;;;;;;;-2.44;100.00;102428.97;5085630;28;20289;-81
2023/01/21 00:37:56;;;;;;;53.97;43.03;;;;;;;-2.42;100.00;102437.72;5086136;28;20139;-81
2023/01/21 00:40:22;;;;;;;55.13;43.37;;;;;;;-2.43;100.00;102433.34;5070391;28;20048;-82
2023/01/21 00:42:47;;;;;;;55.73;44.33;;;;;;;-2.39;100.00;102437.53;5087985;28;20946;-81
2023/01/21 00:45:12;;;;;;;57.43;44.73;;;;;;;-2.43;100.00;102435.16;5073528;28;20069;-82
2023/01/21 00:47:38;;;;;;;56.53;45.40;;;;;;;-2.44;100.00;102441.38;5058530;28;20035;-81
2023/01/21 00:50:04;;;;;;;57.50;45.43;;;;;;;-2.44;100.00;102449.34;5086360;28;20032;-82
2023/01/21 00:52:30;;;;;;;57.30;45.43;;;;;;;-2.45;100.00;102456.47;5088878;28;20491;-81
2023/01/21 00:54:55;;;;;;;56.13;44.50;;;;;;;-2.42;100.00;102450.97;5089265;28;20343;-82
2023/01/21 00:57:21;;;;;;;58.47;47.07;;;;;;;-2.48;100.00;102469.03;5074428;28;20054;-82
2023/01/21 00:59:46;;;;;;;56.77;46.53;;;;;;;-2.44;100.00;102467.94;5088475;28;20024;-81
2023/01/21 01:02:11;;;;;;;62.27;47.90;;;;;;;-2.44;100.00;102470.59;5090580;28;20092;-81
2023/01/21 01:04:37;;;;;;;58.97;46.23;;;;;;;-2.41;100.00;102478.38;5050571;28;20027;-81
2023/01/21 01:07:02;;;;;;;61.27;47.40;;;;;;;-2.49;100.00;102486.75;5085911;28;20039;-82
2023/01/21 01:09:28;;;;;;;62.37;48.53;;;;;;;-2.47;100.00;102494.66;5090724;28;20024;-82
2023/01/21 01:11:53;;;;;;;63.93;48.87;;;;;;;-2.55;100.00;102493.25;5088204;28;20043;-81
2023/01/21 01:14:19;;;;;;;58.20;47.60;;;;;;;-2.55;100.00;102501.22;5058879;28;20039;-82
2023/01/21 01:16:44;;;;;;;63.73;49.43;;;;;;;-2.56;100.00;102504.84;5088317;28;20024;-81
2023/01/21 01:19:10;;;;;;;61.80;50.07;;;;;;;-2.55;100.00;102509.19;5088886;28;20394;-81
2023/01/21 01:21:36;;;;;;;62.27;48.37;;;;;;;-2.58;100.00;102508.53;5071418;28;20110;-81
2023/01/21 01:24:02;;;;;;;64.73;50.30;;;;;;;-2.58;100.00;102527.94;5089235;28;20286;-81
2023/01/21 01:26:28;;;;;;;66.67;51.17;;;;;;;-2.61;100.00;102541.38;5073434;28;20016;-81
2023/01/21 01:28:53;;;;;;;64.10;50.87;;;;;;;-2.58;100.00;102540.38;5087447;28;20047;-81
2023/01/21 01:31:19;;;;;;;65.70;51.57;;;;;;;-2.60;100.00;102537.81;5086897;28;20302;-81
2023/01/21 01:33:46;;;;;;;48.40;20.87;;;;;;;-2.59;100.00;102552.75;5088211;28;20069;-81
2023/01/21 01:36:18;;;;;;;67.43;52.07;;;;;;;-2.60;100.00;102548.41;5089033;28;20283;-81
2023/01/21 01:38:44;;;;;;;68.90;53.17;;;;;;;-2.61;100.00;102551.13;5087969;28;20291;-81
2023/01/21 01:41:26;;;;;;;68.37;52.93;;;;;;;-2.63;100.00;102553.88;5096188;28;20670;-88
2023/01/21 01:44:03;;;;;;;79.70;53.73;;;;;;;-2.65;100.00;102557.53;5098563;28;20355;-88
2023/01/21 01:46:34;;;;;;;76.20;55.50;;;;;;;-2.66;100.00;102569.97;5100370;28;20289;-88
2023/01/21 01:49:07;;;;;;;71.73;53.57;;;;;;;-2.69;100.00;102561.31;5095617;28;20292;-87
2023/01/21 01:51:48;;;;;;;70.67;55.23;;;;;;;-2.75;100.00;102570.47;5097411;28;20367;-88
2023/01/21 01:54:18;;;;;;;45.70;21.83;;;;;;;-2.68;100.00;102569.19;5096927;28;20282;-88
2023/01/21 01:56:49;;;;;;;73.73;55.93;;;;;;;-2.77;100.00;102567.03;5092165;28;20290;-88
2023/01/21 01:59:15;;;;;;;74.00;56.20;;;;;;;-2.81;100.00;102563.69;5096999;28;21282;-88
2023/01/21 02:01:41;;;;;;;74.03;56.83;;;;;;;-2.80;100.00;102575.16;5101773;28;20274;-88
2023/01/21 02:04:11;;;;;;;78.20;58.20;;;;;;;-2.85;100.00;102575.41;5098042;27;20290;-88
2023/01/21 02:06:38;;;;;;;74.03;56.83;;;;;;;-2.88;100.00;102578.22;5101889;28;20046;-87
2023/01/21 02:09:03;;;;;;;78.07;58.67;;;;;;;-2.83;100.00;102584.13;5101203;28;20298;-88
2023/01/21 02:11:29;;;;;;;78.63;59.13;;;;;;;-2.86;100.00;102586.09;5097328;28;20323;-88
2023/01/21 02:13:58;;;;;;;52.40;24.37;;;;;;;-2.84;100.00;102589.50;5091015;28;20138;-88
2023/01/21 02:16:46;;;;;;;79.93;60.50;;;;;;;-2.89;100.00;102587.97;5096300;28;20019;-88
2023/01/21 02:19:56;;;;;;;80.33;59.50;;;;;;;-2.84;100.00;102595.69;5100085;28;20760;-88
2023/01/21 02:22:41;;;;;;;82.53;61.23;;;;;;;-2.91;100.00;102602.25;5095321;28;20338;-88
2023/01/21 02:25:23;;;;;;;79.70;60.73;;;;;;;-2.94;100.00;102605.94;5093880;28;21270;-88
2023/01/21 02:28:05;;;;;;;81.90;62.70;;;;;;;-2.94;100.00;102607.72;5096997;27;20294;-88
2023/01/21 02:30:48;;;;;;;54.03;24.20;;;;;;;-2.91;100.00;102608.41;5102385;28;20331;-88
2023/01/21 02:33:14;;;;;;;80.07;61.43;;;;;;;-2.97;100.00;102613.19;5099113;28;20270;-88
2023/01/21 02:35:42;;;;;;;80.43;62.03;;;;;;;-3.04;100.00;102614.44;5095761;28;20285;-88
2023/01/21 02:38:39;;;;;;;52.33;23.63;;;;;;;-2.97;100.00;102621.16;5098466;28;20023;-88
2023/01/21 02:41:22;;;;;;;80.03;60.57;;;;;;;-3.08;100.00;102624.34;5098313;28;20629;-88
2023/01/21 02:43:56;;;;;;;81.43;61.10;;;;;;;-2.94;100.00;102621.84;5095158;28;20373;-88
2023/01/21 02:46:38;;;;;;;81.75;61.45;;;;;;;-3.05;100.00;102624.19;5095295;28;20305;-87
2023/01/21 02:49:27;;;;;;;84.40;63.43;;;;;;;-3.09;100.00;102633.22;5102987;28;20031;-88
2023/01/21 02:51:52;;;;;;;79.33;60.00;;;;;;;-3.07;100.00;102634.88;5095576;28;20648;-88
2023/01/21 02:54:39;;;;;;;82.10;60.63;;;;;;;-3.07;100.00;102636.69;5100103;28;20289;-87
2023/01/21 02:57:06;;;;;;;79.53;59.57;;;;;;;-3.12;100.00;102644.84;5075952;28;20039;-88
2023/01/21 02:59:34;;;;;;;79.83;59.10;;;;;;;-3.10;100.00;102642.13;5094445;28;20860;-88
2023/01/21 03:02:07;;;;;;;81.67;57.80;;;;;;;-3.18;100.00;102642.53;5101065;28;20307;-88
2023/01/21 03:04:56;;;;;;;78.17;57.87;;;;;;;-3.19;100.00;102646.09;5094420;28;20293;-88
2023/01/21 03:07:55;;;;;;;49.57;21.63;;;;;;;-3.15;100.00;102645.00;5095017;28;20490;-88
2023/01/21 03:10:46;;;;;;;76.57;57.13;;;;;;;-3.20;100.00;102646.19;5088409;28;20377;-88
2023/01/21 03:16:55;;;;;;;53.77;22.20;;;;;;;-3.17;100.00;102653.97;5095370;28;20297;-88
2023/01/21 03:18:55;;;;;;;73.00;56.30;;;;;;;-3.20;100.00;102659.44;5097105;28;20368;-87
2023/01/21 03:21:26;;;;;;;70.83;54.03;;;;;;;-3.31;100.00;102663.47;5095995;28;20293;-88
2023/01/21 03:23:52;;;;;;;43.40;20.60;;;;;;;-3.25;100.00;102668.50;5099944;28;20286;-88
2023/01/21 03:26:25;;;;;;;73.30;55.00;;;;;;;-3.29;100.00;102668.69;5095679;28;20295;-88
2023/01/21 03:28:57;;;;;;;73.93;54.63;;;;;;;-3.31;100.00;102670.59;5105527;28;20368;-87
2023/01/21 03:31:32;;;;;;;50.53;21.27;;;;;;;-3.28;100.00;102668.66;5090371;28;20316;-88
2023/01/21 03:34:02;;;;;;;70.80;53.00;;;;;;;-3.35;100.00;102672.53;5091609;28;20851;-88
2023/01/21 03:36:53;;;;;;;70.03;53.00;;;;;;;-3.30;100.00;102675.81;5096883;28;20301;-88
2023/01/21 03:39:34;;;;;;;44.27;19.73;;;;;;;-3.30;100.00;102669.66;5091134;28;20625;-88
2023/01/21 03:42:00;;;;;;;68.33;50.33;;;;;;;-3.35;100.00;102677.81;5094897;28;20365;-88
2023/01/21 03:44:26;;;;;;;67.03;51.20;;;;;;;-3.34;100.00;102681.34;5099269;28;20407;-88
2023/01/21 03:47:10;;;;;;;71.00;50.97;;;;;;;-3.36;100.00;102686.69;5080950;28;20820;-88
2023/01/21 03:49:45;;;;;;;41.33;18.03;;;;;;;-3.32;100.00;102693.56;5098893;28;20031;-88
2023/01/21 03:52:12;;;;;;;72.40;51.57;;;;;;;-3.38;100.00;102687.75;5084084;28;20325;-88
2023/01/21 03:54:39;;;;;;;68.47;49.90;;;;;;;-3.39;100.00;102694.81;5097384;28;20273;-88
2023/01/21 03:57:04;;;;;;;71.20;49.93;;;;;;;-3.38;100.00;102693.88;5095672;28;20273;-88
2023/01/21 03:59:30;;;;;;;73.03;51.70;;;;;;;-3.39;100.00;102689.50;5103739;28;20285;-87
2023/01/21 04:01:55;;;;;;;72.47;49.93;;;;;;;-3.42;100.00;102698.47;5098896;28;20158;-88
2023/01/21 04:04:21;;;;;;;68.17;49.07;;;;;;;-3.37;100.00;102700.91;5098245;28;20487;-88
2023/01/21 04:06:46;;;;;;;68.77;48.17;;;;;;;-3.39;100.00;102700.13;5100573;28;20028;-87
2023/01/21 04:09:11;;;;;;;68.40;49.63;;;;;;;-3.46;100.00;102694.25;5082665;28;20135;-88
2023/01/21 04:11:37;;;;;;;66.37;48.33;;;;;;;-3.45;100.00;102701.28;5080952;28;20035;-88
2023/01/21 04:14:02;;;;;;;71.60;48.60;;;;;;;-3.45;100.00;102697.78;5098319;28;20040;-88
2023/01/21 04:16:28;;;;;;;69.17;48.40;;;;;;;-3.50;100.00;102697.97;5096526;28;20036;-88
2023/01/21 04:18:53;;;;;;;46.33;18.10;;;;;;;-3.44;100.00;102710.06;5090731;28;20099;-87
2023/01/21 04:21:19;;;;;;;39.93;17.50;;;;;;;-3.43;100.00;102712.69;5097001;28;20032;-88
2023/01/21 04:23:44;;;;;;;68.30;48.20;;;;;;;-3.49;100.00;102714.75;5088157;28;20032;-88
2023/01/21 04:26:10;;;;;;;67.63;47.40;;;;;;;-3.49;100.00;102709.47;5097151;28;20032;-87
2023/01/21 04:28:35;;;;;;;67.57;47.87;;;;;;;-3.52;100.00;102715.75;5099346;28;20858;-87
2023/01/21 04:31:00;;;;;;;44.07;17.83;;;;;;;-3.47;100.00;102718.19;5072182;28;20036;-88
2023/01/21 04:33:26;;;;;;;64.73;46.80;;;;;;;-3.54;100.00;102719.41;5086766;28;20042;-87
2023/01/21 04:35:56;;;;;;;69.40;48.27;;;;;;;-3.47;100.00;102715.53;5101183;28;20035;-88
2023/01/21 04:38:21;;;;;;;42.87;16.77;;;;;;;-3.48;100.00;102716.44;5092489;28;20479;-88
2023/01/21 04:40:47;;;;;;;45.33;18.17;;;;;;;-3.48;100.00;102714.69;5080007;28;20350;-87
2023/01/21 04:43:12;;;;;;;68.40;47.77;;;;;;;-3.50;100.00;102720.97;5100913;28;20187;-87
2023/01/21 04:45:38;;;;;;;66.00;45.83;;;;;;;-3.54;100.00;102719.41;5093363;28;20160;-88
2023/01/21 04:48:03;;;;;;;66.03;46.93;;;;;;;-3.49;100.00;102717.41;5087953;28;21920;-88
2023/01/21 04:50:28;;;;;;;63.73;46.57;;;;;;;-3.50;100.00;102726.28;5075364;28;20062;-87
2023/01/21 04:52:54;;;;;;;43.23;18.07;;;;;;;-3.51;100.00;102728.06;5098667;28;20032;-88
2023/01/21 04:55:19;;;;;;;71.37;49.90;;;;;;;-3.58;100.00;102727.53;5097304;28;20340;-88
2023/01/21 04:57:44;;;;;;;69.90;48.67;;;;;;;-3.63;100.00;102731.28;5083290;28;20051;-81
2023/01/21 05:00:10;;;;;;;69.37;48.17;;;;;;;-3.56;100.00;102733.59;5082637;28;20476;-81
2023/01/21 05:02:35;;;;;;;70.17;48.73;;;;;;;-3.52;100.00;102744.03;5066361;28;20032;-81
2023/01/21 05:05:01;;;;;;;66.07;46.43;;;;;;;-3.52;100.00;102744.03;5064915;28;20689;-81
2023/01/21 05:07:26;;;;;;;72.17;48.97;;;;;;;-3.58;100.00;102747.84;5081464;28;20113;-81
2023/01/21 05:09:52;;;;;;;66.67;47.17;;;;;;;-3.54;100.00;102753.88;5079931;28;20024;-81
2023/01/21 05:12:17;;;;;;;71.50;48.57;;;;;;;-3.60;100.00;102757.66;5070388;28;20047;-81
2023/01/21 05:14:43;;;;;;;71.07;47.67;;;;;;;-3.59;100.00;102751.41;5081733;28;20130;-81
2023/01/21 05:17:08;;;;;;;71.30;47.93;;;;;;;-3.68;100.00;102757.16;5064040;28;20036;-81
2023/01/21 05:19:33;;;;;;;65.93;47.37;;;;;;;-3.63;100.00;102758.66;5081171;28;20332;-80
2023/01/21 05:21:59;;;;;;;43.23;18.40;;;;;;;-3.58;100.00;102761.97;5080109;28;20073;-81
2023/01/21 05:24:24;;;;;;;70.60;47.47;;;;;;;-3.66;100.00;102757.94;5066198;28;20067;-81
2023/01/21 05:26:49;;;;;;;44.07;16.80;;;;;;;-3.57;100.00;102763.66;5066624;28;20121;-81
2023/01/21 05:29:15;;;;;;;70.30;47.80;;;;;;;-3.68;100.00;102765.13;5084836;28;20123;-80
2023/01/21 05:31:42;;;;;;;70.83;48.17;;;;;;;-3.68;100.00;102767.75;5082713;28;20028;-81
2023/01/21 05:34:11;;;;;;;72.63;47.67;;;;;;;-3.71;100.00;102768.75;5082472;28;20045;-81
2023/01/21 05:36:37;;;;;;;69.73;47.73;;;;;;;-3.74;100.00;102771.53;5081238;28;20293;-81
2023/01/21 05:39:03;;;;;;;72.40;47.87;;;;;;;-3.68;100.00;102771.25;5067637;28;20658;-80
2023/01/21 05:41:28;;;;;;;71.63;48.33;;;;;;;-3.65;100.00;102780.88;5085254;28;20042;-81
2023/01/21 05:43:53;;;;;;;70.33;47.97;;;;;;;-3.68;100.00;102779.22;5083129;28;20820;-81
2023/01/21 05:46:19;;;;;;;45.77;18.17;;;;;;;-3.64;100.00;102785.25;5082809;28;20941;-81
2023/01/21 05:48:44;;;;;;;47.67;18.53;;;;;;;-3.64;100.00;102788.75;5082507;28;20032;-81
2023/01/21 05:51:10;;;;;;;44.97;16.90;;;;;;;-3.63;100.00;102790.47;5083980;28;20278;-81
2023/01/21 05:53:35;;;;;;;68.57;46.33;;;;;;;-3.68;100.00;102792.47;5083968;28;20039;-81
2023/01/21 05:56:01;;;;;;;71.47;47.17;;;;;;;-3.70;100.00;102793.47;5100708;27;20020;-81
2023/01/21 05:58:26;;;;;;;71.70;47.93;;;;;;;-3.67;100.00;102793.31;5084065;28;20028;-80
2023/01/21 06:00:52;;;;;;;68.63;47.67;;;;;;;-3.72;100.00;102790.88;5065939;28;20042;-81
2023/01/21 06:03:18;;;;;;;68.70;47.63;;;;;;;-3.72;100.00;102795.34;5069378;28;20092;-81
2023/01/21 06:05:44;;;;;;;40.93;17.63;;;;;;;-3.69;100.00;102797.84;5082821;28;20027;-80
2023/01/21 06:08:11;;;;;;;72.40;49.13;;;;;;;-3.72;100.00;102796.19;5071660;28;20411;-81
2023/01/21 06:10:37;;;;;;;75.00;49.00;;;;;;;-3.66;100.00;102800.34;5083990;28;20296;-80
2023/01/21 06:13:02;;;;;;;72.80;48.27;;;;;;;-3.68;100.00;102796.91;5070129;28;20354;-81
2023/01/21 06:15:28;;;;;;;70.60;47.80;;;;;;;-3.70;100.00;102809.34;5095550;28;20028;-87
2023/01/21 06:17:54;;;;;;;70.67;47.30;;;;;;;-3.78;100.00;102812.34;5092567;28;20115;-88
2023/01/21 06:20:20;;;;;;;42.80;18.10;;;;;;;-3.69;100.00;102816.38;5098709;28;20053;-87
2023/01/21 06:22:46;;;;;;;75.50;49.63;;;;;;;-3.76;100.00;102821.09;5107273;27;20036;-80
2023/01/21 06:25:12;;;;;;;68.23;46.73;;;;;;;-3.70;100.00;102812.00;5082601;28;20395;-81
2023/01/21 06:27:37;;;;;;;69.77;46.60;;;;;;;-3.68;100.00;102813.66;5050635;28;20110;-80
2023/01/21 06:30:08;;;;;;;46.10;18.27;;;;;;;-3.70;100.00;102818.16;5069602;28;20070;-81
2023/01/21 06:32:34;;;;;;;71.07;47.80;;;;;;;-3.79;100.00;102818.59;5083377;28;20046;-80
2023/01/21 06:34:59;;;;;;;67.07;46.53;;;;;;;-3.81;100.00;102828.38;5083265;28;20286;-81
2023/01/21 06:37:25;;;;;;;66.77;46.03;;;;;;;-3.81;100.00;102831.03;5082072;28;20539;-80
2023/01/21 06:39:50;;;;;;;68.87;46.80;;;;;;;-3.90;100.00;102834.97;5082772;28;20139;-81
2023/01/21 06:42:16;;;;;;;66.70;46.77;;;;;;;-3.90;100.00;102837.63;5081402;28;20042;-80
2023/01/21 06:44:43;;;;;;;40.67;15.33;;;;;;;-3.82;100.00;102847.84;5082398;28;20063;-80
2023/01/21 06:47:08;;;;;;;69.63;47.07;;;;;;;-3.84;100.00;102853.22;5064997;28;20474;-80
2023/01/21 06:49:33;;;;;;;67.03;46.43;;;;;;;-3.91;100.00;102859.72;5081171;28;22037;-80
2023/01/21 06:51:59;;;;;;;69.23;46.70;;;;;;;-3.90;100.00;102866.75;5081159;28;20036;-80
2023/01/21 06:54:24;;;;;;;70.83;47.00;;;;;;;-3.79;100.00;102866.28;5080711;28;20165;-80
2023/01/21 06:56:49;;;;;;;40.47;16.93;;;;;;;-3.83;100.00;102875.28;5079809;28;21895;-80
2023/01/21 06:59:15;;;;;;;67.80;46.43;;;;;;;-3.80;100.00;102873.34;5068331;28;20049;-80
2023/01/21 07:01:40;;;;;;;44.37;17.70;;;;;;;-3.82;100.00;102871.69;5083798;28;20040;-80
2023/01/21 07:04:06;;;;;;;69.67;47.20;;;;;;;-3.94;100.00;102878.41;5065116;28;20149;-80
2023/01/21 07:06:31;;;;;;;73.40;48.93;;;;;;;-3.96;100.00;102886.41;5080731;28;20159;-80
2023/01/21 07:08:56;;;;;;;74.83;48.43;;;;;;;-3.90;100.00;102880.84;5064267;28;20032;-80
2023/01/21 07:11:22;;;;;;;72.47;47.93;;;;;;;-3.87;100.00;102882.50;5064000;28;20028;-80
2023/01/21 07:13:47;;;;;;;44.03;17.93;;;;;;;-3.87;100.00;102885.16;5064628;28;20578;-80
2023/01/21 07:16:12;;;;;;;48.37;18.57;;;;;;;-3.85;100.00;102893.00;5080775;28;20051;-80
2023/01/21 07:18:38;;;;;;;78.47;48.77;;;;;;;-3.96;100.00;102896.13;5079096;28;20031;-80
2023/01/21 07:21:03;;;;;;;75.60;48.63;;;;;;;-3.94;100.00;102899.59;5079744;28;20063;-80
2023/01/21 07:23:29;;;;;;;41.77;17.40;;;;;;;-3.91;100.00;102905.59;5080554;28;20032;-80
2023/01/21 07:25:55;;;;;;;74.80;49.10;;;;;;;-3.87;100.00;102908.13;5062444;28;20028;-80
2023/01/21 07:28:20;;;;;;;76.37;49.30;;;;;;;-3.86;100.00;102912.47;5064775;28;20119;-80
2023/01/21 07:30:45;;;;;;;88.77;52.43;;;;;;;-3.78;100.00;102913.00;5075912;28;20040;-80
2023/01/21 07:33:11;;;;;;;48.53;18.70;;;;;;;-3.78;100.00;102918.31;5061007;28;20064;-80
2023/01/21 07:35:36;;;;;;;92.53;53.80;;;;;;;-3.67;100.00;102918.72;5078508;28;20145;-80
2023/01/21 07:38:02;;;;;;;98.50;56.33;;;;;;;-3.60;100.00;102921.94;5079291;28;20036;-80
2023/01/21 07:40:27;;;;;;;95.40;53.67;;;;;;;-3.53;100.00;102927.84;5069867;28;20044;-80
2023/01/21 07:42:54;;;;;;;103.63;58.33;;;;;;;-3.53;100.00;102934.00;5078450;28;20073;-80
2023/01/21 07:45:20;;;;;;;57.87;20.60;;;;;;;-3.50;100.00;102933.00;5079887;28;20032;-83
2023/01/21 07:47:46;;;;;;;107.30;59.43;;;;;;;-3.45;100.00;102931.84;5079547;28;20309;-80
2023/01/21 07:50:11;;;;;;;108.83;57.60;;;;;;;-3.38;100.00;102943.06;5082044;28;20788;-80
2023/01/21 07:52:37;;;;;;;112.43;58.63;;;;;;;-3.35;100.00;102950.84;5081194;28;20038;-81
2023/01/21 07:55:03;;;;;;;113.43;60.73;;;;;;;-3.28;100.00;102949.69;5080729;28;20484;-80
2023/01/21 07:57:28;;;;;;;120.00;60.37;;;;;;;-3.22;100.00;102954.69;5080759;28;20028;-81
2023/01/21 07:59:53;;;;;;;106.63;58.17;;;;;;;-3.16;100.00;102964.16;5078304;28;20294;-80
2023/01/21 08:02:19;;;;;;;110.40;59.83;;;;;;;-3.11;100.00;102978.06;5064640;28;20079;-80
2023/01/21 08:04:44;;;;;;;118.03;62.37;;;;;;;-3.09;100.00;102975.34;5094555;27;20032;-80
2023/01/21 08:07:09;;;;;;;116.40;61.57;;;;;;;-3.02;100.00;102973.25;5070404;28;20703;-80
2023/01/21 08:09:36;;;;;;;108.90;58.47;;;;;;;-2.97;100.00;102979.22;5068872;28;20032;-80
2023/01/21 08:12:03;;;;;;;115.50;60.13;;;;;;;-2.96;100.00;102992.41;5068142;28;20586;-81
2023/01/21 08:14:29;;;;;;;117.17;60.70;;;;;;;-2.92;100.00;102995.78;5070038;28;20644;-80
2023/01/21 08:16:54;;;;;;;117.67;61.57;;;;;;;-2.91;100.00;102995.72;5078230;28;20290;-81
2023/01/21 08:19:19;;;;;;;110.63;58.90;;;;;;;-2.80;100.00;103004.97;5079130;28;20127;-81
2023/01/21 08:21:45;;;;;;;113.97;60.43;;;;;;;-2.79;100.00;103009.34;5065796;28;20128;-81
2023/01/21 08:24:10;;;;;;;111.47;60.90;;;;;;;-2.73;100.00;103009.06;5079202;28;20076;-81
2023/01/21 08:26:36;;;;;;;60.50;22.03;;;;;;;-2.68;100.00;103015.00;5060127;28;20034;-81
2023/01/21 08:29:01;;;;;;;109.77;58.87;;;;;;;-2.67;100.00;103016.72;5095860;28;20036;-81
2023/01/21 08:31:27;;;;;;;108.33;57.73;;;;;;;-2.65;100.00;103025.50;5055149;28;20036;-81
2023/01/21 08:33:52;;;;;;;113.43;58.50;;;;;;;-2.64;100.00;103029.88;5080066;28;20043;-81
2023/01/21 08:36:17;;;;;;;114.43;59.77;;;;;;;-2.61;100.00;103040.34;5078739;28;20419;-81
2023/01/21 08:38:43;;;;;;;118.10;59.50;;;;;;;-2.56;100.00;103030.38;5062423;28;20433;-81
2023/01/21 08:41:09;;;;;;;115.70;59.43;;;;;;;-2.52;100.00;103035.53;5054901;28;20029;-81
2023/01/21 08:43:35;;;;;;;135.13;60.13;;;;;;;-2.51;100.00;103039.91;5079942;28;20024;-81
2023/01/21 08:46:00;;;;;;;118.37;59.93;;;;;;;-2.48;100.00;103043.28;5078880;28;20308;-81
2023/01/21 08:48:27;;;;;;;116.53;58.87;;;;;;;-2.44;100.00;103049.31;5080476;28;20036;-81
2023/01/21 08:50:52;;;;;;;114.37;58.73;;;;;;;-2.41;100.00;103044.72;5094119;28;20036;-89
2023/01/21 08:53:18;;;;;;;111.00;56.20;;;;;;;-2.38;100.00;103041.03;5094981;28;20281;-88
2023/01/21 08:55:44;;;;;;;106.10;54.23;;;;;;;-2.37;100.00;103053.38;5100975;28;20055;-89
2023/01/21 08:58:09;;;;;;;104.97;55.13;;;;;;;-2.35;100.00;103045.34;5089787;28;20060;-89
2023/01/21 09:00:34;;;;;;;110.83;57.57;;;;;;;-2.34;100.00;103057.69;5093020;28;20558;-89
2023/01/21 09:03:00;;;;;;;113.47;55.77;;;;;;;-2.31;100.00;103063.72;5102165;28;20035;-89
2023/01/21 09:05:25;;;;;;;116.67;60.60;;;;;;;-2.28;100.00;103058.25;5096988;28;20028;-89
2023/01/21 09:07:51;;;;;;;114.07;58.73;;;;;;;-2.25;100.00;103063.41;5099841;28;20055;-89
2023/01/21 09:10:59;;;;;;;112.47;55.57;;;;;;;-2.27;100.00;103072.38;5097367;28;20032;-89
2023/01/21 09:13:07;;;;;;;110.50;55.40;;;;;;;-2.24;100.00;103064.31;5090801;28;20093;-89
2023/01/21 09:15:40;;;;;;;110.87;55.43;;;;;;;-2.19;100.00;103072.03;5093718;28;20789;-89
2023/01/21 09:18:06;;;;;;;116.67;56.77;;;;;;;-2.24;100.00;103066.97;5098188;28;20285;-89
2023/01/21 09:20:31;;;;;;;109.40;56.30;;;;;;;-2.17;100.00;103072.84;5094756;28;20281;-89
2023/01/21 09:22:57;;;;;;;107.93;56.33;;;;;;;-2.16;100.00;103078.06;5092184;28;20056;-88
2023/01/21 09:25:23;;;;;;;104.83;54.30;;;;;;;-2.16;100.00;103067.44;5099857;28;20062;-89
2023/01/21 09:27:49;;;;;;;102.23;54.27;;;;;;;-2.12;100.00;103076.09;5094220;28;20055;-81
2023/01/21 09:30:15;;;;;;;99.30;51.17;;;;;;;-2.13;100.00;103072.59;5082214;28;20028;-81
2023/01/21 09:32:40;;;;;;;99.50;51.97;;;;;;;-2.08;100.00;103075.91;5055349;28;20042;-81
2023/01/21 09:35:06;;;;;;;95.40;51.90;;;;;;;-2.10;100.00;103082.22;5083009;28;20024;-81
2023/01/21 09:37:33;;;;;;;96.27;51.67;;;;;;;-2.15;100.00;103085.09;5083777;28;20020;-81
2023/01/21 09:40:02;;;;;;;94.67;52.70;;;;;;;-2.06;100.00;103087.31;5067397;28;20181;-81
2023/01/21 09:42:31;;;;;;;93.97;50.53;;;;;;;-2.05;100.00;103094.34;5084088;28;20285;-82
2023/01/21 09:45:00;;;;;;;98.63;52.13;;;;;;;-2.05;100.00;103096.16;5065868;28;20291;-81
2023/01/21 09:47:32;;;;;;;99.90;51.40;;;;;;;-2.03;100.00;103099.59;5081385;28;20328;-82
2023/01/21 09:50:06;;;;;;;98.13;51.07;;;;;;;-2.04;100.00;103106.69;5084592;28;20324;-81
2023/01/21 09:52:37;;;;;;;97.63;51.33;;;;;;;-1.99;100.00;103121.56;5085964;28;20317;-81
2023/01/21 09:55:05;;;;;;;95.17;49.90;;;;;;;-2.00;100.00;103117.19;5090143;28;20036;-81
2023/01/21 09:57:36;;;;;;;96.53;50.80;;;;;;;-1.99;100.00;103127.72;5080950;28;20290;-81
2023/01/21 10:00:23;;;;;;;96.10;50.13;;;;;;;-1.91;100.00;103138.84;5080879;28;20290;-81
2023/01/21 10:03:07;;;;;;;88.53;49.87;;;;;;;-1.95;100.00;103136.44;5083903;28;20279;-81
2023/01/21 10:05:41;;;;;;;91.03;49.17;;;;;;;-1.97;100.00;103138.28;5084287;28;20301;-81
2023/01/21 10:08:47;;;;;;;91.30;51.10;;;;;;;-1.92;100.00;103146.91;5083598;28;20660;-81
2023/01/21 10:11:30;;;;;;;94.95;50.92;;;;;;;-1.86;100.00;103149.28;5084130;28;20513;-82
2023/01/21 10:14:29;;;;;;;88.37;48.73;;;;;;;-1.86;100.00;103141.31;5082969;28;20048;-81
2023/01/21 10:17:05;;;;;;;89.67;48.97;;;;;;;-1.85;100.00;103148.31;5082775;28;20611;-82
2023/01/21 10:19:46;;;;;;;89.63;49.37;;;;;;;-1.82;100.00;103144.66;5085173;28;20294;-81
2023/01/21 10:22:16;;;;;;;93.47;51.07;;;;;;;-1.79;100.00;103132.09;5087558;28;20303;-89
2023/01/21 10:24:48;;;;;;;89.03;49.47;;;;;;;-1.72;100.00;103135.31;5095175;28;20969;-89
2023/01/21 10:27:17;;;;;;;89.67;50.20;;;;;;;-1.68;100.00;103133.38;5095179;28;20309;-89
2023/01/21 10:29:43;;;;;;;86.00;49.07;;;;;;;-1.62;100.00;103128.63;5080696;28;21078;-89
2023/01/21 10:32:14;;;;;;;86.73;49.33;;;;;;;-1.46;100.00;103127.84;5091145;28;20803;-89
2023/01/21 10:34:48;;;;;;;86.40;50.63;;;;;;;-1.40;100.00;103122.22;5097285;28;20343;-88
2023/01/21 10:37:35;;;;;;;85.43;49.13;;;;;;;-1.36;100.00;103126.44;5095947;28;20290;-89
2023/01/21 10:40:16;;;;;;;81.37;48.43;;;;;;;-1.28;100.00;103126.06;5090177;28;20039;-89
2023/01/21 10:43:06;;;;;;;80.23;47.63;;;;;;;-1.14;100.00;103128.00;5098938;28;20301;-89
2023/01/21 10:45:45;;;;;;;81.63;47.20;;;;;;;-1.13;100.00;103125.28;5100218;28;20821;-89
2023/01/21 10:48:41;;;;;;;74.90;47.17;;;;;;;-0.98;100.00;103120.97;5100797;28;21986;-88
2023/01/21 10:51:15;;;;;;;76.00;47.13;;;;;;;-0.85;100.00;103121.19;5086765;28;20376;-89
2023/01/21 10:53:50;;;;;;;75.32;47.30;;;;;;;-0.97;100.00;103117.34;5097741;28;20285;-90
2023/01/21 10:56:21;;;;;;;69.90;46.03;;;;;;;-0.66;100.00;103117.56;5079794;28;20031;-90
2023/01/21 10:58:50;;;;;;;67.10;44.60;;;;;;;-0.73;100.00;103114.34;5090552;28;20282;-90
2023/01/21 11:01:28;;;;;;;65.83;44.37;;;;;;;-0.24;100.00;103116.16;5092113;28;20634;-90
2023/01/21 11:04:21;;;;;;;65.50;43.77;;;;;;;0.25;100.00;103123.19;5091528;28;20285;-89
2023/01/21 11:07:10;;;;;;;62.90;42.70;;;;;;;0.46;100.00;103129.97;5086793;28;20372;-90
2023/01/21 11:09:45;;;;;;;61.83;42.30;;;;;;;0.56;100.00;103119.63;5102432;27;20245;-90
2023/01/21 11:12:21;;;;;;;62.53;43.40;;;;;;;0.24;100.00;103125.00;5092549;28;20090;-91